createdAt,value
2023-05-15T00:01:38.381Z,26.25
2023-05-15T00:04:23.886Z,28.33
2023-05-15T00:07:09.768Z,32.90
2023-05-15T00:09:57.221Z,31.27
2023-05-15T00:12:42.811Z,27.73
2023-05-15T00:15:28.722Z,31.58
2023-05-15T00:18:14.673Z,28.90
2023-05-15T00:21:00.415Z,30.65
2023-05-15T00:23:47.511Z,25.85
2023-05-15T00:26:34.841Z,26.98
2023-05-15T00:29:20.326Z,31.13
2023-05-15T00:32:06.480Z,32.28
2023-05-15T00:34:52.040Z,31.23
2023-05-15T00:37:37.754Z,28.33
2023-05-15T00:40:26.010Z,29.48
2023-05-15T00:43:14.962Z,30.58
2023-05-15T00:46:02.408Z,28.50
2023-05-15T00:48:50.222Z,31.45
2023-05-15T00:51:36.923Z,27.73
2023-05-15T00:54:22.917Z,31.08
2023-05-15T00:57:10.169Z,32.42
2023-05-15T00:59:57.310Z,30.13
2023-05-15T01:02:43.980Z,30.40
2023-05-15T01:05:29.698Z,29.52
2023-05-15T01:08:21.662Z,29.27
2023-05-15T01:11:11.712Z,33.53
2023-05-15T01:13:57.834Z,30.98
2023-05-15T01:16:45.984Z,29.95
2023-05-15T01:19:31.792Z,31.67
2023-05-15T01:22:46.917Z,35.80
2023-05-15T01:25:54.088Z,32.55
2023-05-15T01:28:47.951Z,36.22
2023-05-15T01:31:37.197Z,42.63
2023-05-15T01:34:29.489Z,39.90
2023-05-15T01:37:21.999Z,38.35
2023-05-15T01:40:10.699Z,43.55
2023-05-15T01:43:01.380Z,41.10
2023-05-15T01:45:48.154Z,29.43
2023-05-15T01:48:36.495Z,38.13
2023-05-15T01:51:24.304Z,41.35
2023-05-15T01:54:11.626Z,43.45
2023-05-15T01:56:58.968Z,43.15
2023-05-15T01:59:45.326Z,44.70
2023-05-15T02:02:32.724Z,47.83
2023-05-15T02:05:19.325Z,37.90
2023-05-15T02:08:06.105Z,55.03
2023-05-15T02:10:53.139Z,49.53
2023-05-15T02:13:40.829Z,46.53
2023-05-15T02:16:26.640Z,44.85
2023-05-15T02:19:14.103Z,46.78
2023-05-15T02:22:00.265Z,41.05
2023-05-15T02:24:46.206Z,43.42
2023-05-15T02:27:38.647Z,44.08
2023-05-15T02:30:34.663Z,48.00
2023-05-15T02:33:25.789Z,50.75
2023-05-15T02:39:02.698Z,60.17
2023-05-15T02:41:49.199Z,53.45
2023-05-15T02:44:36.615Z,62.97
2023-05-15T02:47:23.974Z,63.67
2023-05-15T02:50:10.706Z,74.20
2023-05-15T02:53:03.549Z,86.85
2023-05-15T02:55:49.636Z,83.47
2023-05-15T02:58:35.567Z,80.03
2023-05-15T03:01:21.574Z,83.65
2023-05-15T03:04:07.221Z,76.95
2023-05-15T03:06:52.802Z,73.88
2023-05-15T03:09:39.984Z,79.95
2023-05-15T03:12:26.321Z,76.20
2023-05-15T03:15:11.866Z,71.22
2023-05-15T03:17:57.927Z,68.28
2023-05-15T03:20:43.599Z,74.13
2023-05-15T03:23:31.169Z,74.38
2023-05-15T03:26:18.347Z,71.43
2023-05-15T03:29:04.286Z,66.85
2023-05-15T03:31:50.144Z,63.97
2023-05-15T03:34:36.338Z,66.30
2023-05-15T03:37:21.849Z,63.72
2023-05-15T03:40:09.314Z,63.75
2023-05-15T03:42:58.329Z,65.13
2023-05-15T03:45:44.433Z,66.82
2023-05-15T03:48:30.049Z,72.50
2023-05-15T03:51:15.878Z,65.22
2023-05-15T03:54:15.904Z,65.45
2023-05-15T03:57:04.924Z,64.88
2023-05-15T03:59:50.556Z,64.07
2023-05-15T04:02:37.028Z,67.30
2023-05-15T04:05:22.800Z,72.38
2023-05-15T04:08:10.096Z,75.38
2023-05-15T04:10:57.268Z,78.35
2023-05-15T04:13:43.091Z,74.20
2023-05-15T04:16:28.977Z,71.35
2023-05-15T04:19:14.853Z,71.15
2023-05-15T04:22:00.461Z,84.55
2023-05-15T04:24:45.899Z,69.45
2023-05-15T04:27:32.917Z,70.28
2023-05-15T04:30:18.524Z,70.50
2023-05-15T04:33:03.997Z,72.25
2023-05-15T04:35:49.887Z,72.47
2023-05-15T04:38:35.615Z,70.82
2023-05-15T04:41:24.409Z,67.43
2023-05-15T04:44:11.767Z,70.10
2023-05-15T04:46:57.566Z,63.50
2023-05-15T04:49:43.581Z,67.68
2023-05-15T04:52:29.222Z,63.58
2023-05-15T04:55:14.790Z,62.50
2023-05-15T04:58:00.266Z,59.88
2023-05-15T05:00:47.658Z,51.95
2023-05-15T05:03:33.521Z,56.35
2023-05-15T05:06:19.457Z,55.10
2023-05-15T05:09:05.880Z,57.00
2023-05-15T05:11:51.532Z,55.83
2023-05-15T05:14:37.470Z,52.25
2023-05-15T05:17:24.325Z,53.55
2023-05-15T05:20:13.190Z,48.35
2023-05-15T05:22:59.235Z,48.30
2023-05-15T05:25:45.030Z,48.88
2023-05-15T05:28:30.611Z,46.85
2023-05-15T05:31:16.368Z,39.88
2023-05-15T05:34:03.746Z,41.28
2023-05-15T05:36:49.731Z,42.50
2023-05-15T05:39:40.377Z,39.47
2023-05-15T05:42:26.886Z,37.80
2023-05-15T05:45:12.858Z,37.85
2023-05-15T05:48:01.516Z,33.97
2023-05-15T05:50:48.729Z,37.30
2023-05-15T05:53:34.216Z,36.40
2023-05-15T05:56:20.054Z,36.60
2023-05-15T05:59:06.427Z,34.08
2023-05-15T06:01:52.375Z,36.15
2023-05-15T06:04:38.661Z,36.22
2023-05-15T06:07:25.832Z,34.60
2023-05-15T06:10:12.900Z,33.75
2023-05-15T06:12:58.546Z,31.73
2023-05-15T06:15:45.868Z,35.42
2023-05-15T06:18:31.686Z,31.35
2023-05-15T06:21:17.707Z,33.35
2023-05-15T06:24:04.797Z,31.75
2023-05-15T06:26:52.374Z,35.22
2023-05-15T06:29:38.177Z,39.50
2023-05-15T06:32:24.466Z,34.70
2023-05-15T06:35:10.708Z,40.08
2023-05-15T06:37:57.156Z,41.78
2023-05-15T06:40:45.690Z,35.53
2023-05-15T06:43:31.254Z,35.88
2023-05-15T06:46:19.162Z,37.33
2023-05-15T06:49:05.080Z,31.80
2023-05-15T06:51:51.220Z,29.90
2023-05-15T06:54:37.550Z,28.35
2023-05-15T06:57:24.398Z,30.15
2023-05-15T07:00:11.543Z,29.75
2023-05-15T07:02:57.527Z,30.77
2023-05-15T07:05:43.668Z,24.90
2023-05-15T07:08:29.276Z,26.17
2023-05-15T07:11:14.859Z,24.75
2023-05-15T07:14:02.325Z,24.63
2023-05-15T07:16:47.848Z,19.67
2023-05-15T07:19:33.582Z,26.30
2023-05-15T07:22:19.268Z,18.63
2023-05-15T07:25:06.565Z,21.67
2023-05-15T07:27:52.870Z,23.35
2023-05-15T07:30:39.781Z,23.27
2023-05-15T07:33:25.460Z,20.23
2023-05-15T07:36:11.382Z,20.70
2023-05-15T07:38:57.278Z,21.52
2023-05-15T07:41:42.866Z,22.85
2023-05-15T07:44:28.896Z,22.75
2023-05-15T07:47:17.272Z,29.75
2023-05-15T07:50:03.350Z,25.48
2023-05-15T07:52:49.051Z,23.65
2023-05-15T07:55:34.689Z,26.60
2023-05-15T07:58:20.640Z,24.38
2023-05-15T08:01:06.782Z,26.10
2023-05-15T08:03:53.946Z,25.35
2023-05-15T08:06:40.035Z,23.95
2023-05-15T08:09:25.604Z,22.25
2023-05-15T08:12:21.164Z,20.40
2023-05-15T08:15:08.584Z,21.35
2023-05-15T08:17:53.976Z,25.13
2023-05-15T08:20:40.947Z,23.60
2023-05-15T08:23:26.714Z,22.95
2023-05-15T08:26:12.693Z,27.88
2023-05-15T08:28:58.511Z,25.98
2023-05-15T08:31:44.530Z,27.50
2023-05-15T08:34:30.305Z,27.90
2023-05-15T08:37:17.279Z,28.85
2023-05-15T08:40:05.404Z,26.88
2023-05-15T08:42:55.485Z,27.98
2023-05-15T08:45:41.970Z,26.13
2023-05-15T08:48:30.075Z,27.45
2023-05-15T08:51:16.311Z,28.17
2023-05-15T08:54:03.962Z,28.13
2023-05-15T08:56:49.525Z,28.38
2023-05-15T08:59:35.526Z,24.38
2023-05-15T09:02:21.676Z,23.15
2023-05-15T09:05:09.708Z,20.25
2023-05-15T09:07:56.667Z,26.35
2023-05-15T09:10:44.129Z,24.33
2023-05-15T09:13:30.614Z,24.90
2023-05-15T09:16:16.165Z,24.35
2023-05-15T09:19:02.631Z,26.92
2023-05-15T09:21:49.281Z,25.27
2023-05-15T09:24:38.154Z,21.10
2023-05-15T09:27:26.356Z,23.52
2023-05-15T09:30:13.370Z,23.08
2023-05-15T09:33:01.447Z,25.58
2023-05-15T09:35:47.337Z,26.85
2023-05-15T09:38:33.539Z,22.75
2023-05-15T09:41:25.867Z,21.63
2023-05-15T09:44:27.988Z,19.80
2023-05-15T09:47:16.802Z,18.15
2023-05-15T09:50:05.989Z,20.63
2023-05-15T09:52:52.213Z,22.13
2023-05-15T09:55:37.921Z,23.50
2023-05-15T09:58:23.877Z,24.13
2023-05-15T10:01:15.400Z,23.10
2023-05-15T10:04:03.691Z,20.35
2023-05-15T10:06:49.535Z,22.80
2023-05-15T10:09:34.967Z,23.13
2023-05-15T10:12:20.871Z,25.95
2023-05-15T10:15:08.316Z,22.55
2023-05-15T10:17:55.714Z,22.13
2023-05-15T10:20:42.050Z,21.73
2023-05-15T10:23:29.282Z,21.95
2023-05-15T10:26:23.700Z,20.80
2023-05-15T10:29:11.455Z,20.83
2023-05-15T10:31:59.075Z,25.50
2023-05-15T10:34:46.521Z,25.20
2023-05-15T10:37:32.865Z,20.88
2023-05-15T10:40:19.217Z,24.88
2023-05-15T10:43:06.057Z,22.23
2023-05-15T10:45:52.862Z,27.73
2023-05-15T10:48:39.756Z,26.45
2023-05-15T10:51:28.143Z,28.92
2023-05-15T10:54:14.243Z,29.90
2023-05-15T10:56:59.807Z,31.02
2023-05-15T10:59:45.159Z,29.70
2023-05-15T11:02:31.647Z,31.45
2023-05-15T11:05:17.640Z,30.08
2023-05-15T11:08:27.397Z,30.95
2023-05-15T11:11:46.631Z,30.15
2023-05-15T11:14:34.105Z,28.75
2023-05-15T11:17:19.767Z,28.85
2023-05-15T11:20:06.107Z,29.67
2023-05-15T11:22:59.859Z,30.70
2023-05-15T11:25:53.374Z,28.90
2023-05-15T11:28:43.700Z,30.23
2023-05-15T11:31:31.296Z,29.73
2023-05-15T11:34:30.248Z,28.98
2023-05-15T11:37:19.761Z,27.63
2023-05-15T11:40:07.106Z,27.95
2023-05-15T11:43:03.173Z,29.25
2023-05-15T11:45:52.824Z,31.05
2023-05-15T11:48:41.287Z,30.92
2023-05-15T11:51:27.842Z,29.02
2023-05-15T11:54:14.266Z,29.27
2023-05-15T11:57:00.006Z,28.00
2023-05-15T11:59:47.420Z,29.52
2023-05-15T12:02:33.311Z,28.23
2023-05-15T12:05:19.223Z,29.88
2023-05-15T12:08:10.181Z,27.52
2023-05-15T12:10:59.179Z,30.00
2023-05-15T12:13:45.489Z,32.42
2023-05-15T12:16:32.992Z,33.17
2023-05-15T12:19:18.820Z,30.67
2023-05-15T12:22:05.198Z,36.28
2023-05-15T12:24:51.913Z,34.25
2023-05-15T12:27:39.681Z,35.28
2023-05-15T12:30:26.743Z,34.70
2023-05-15T12:33:14.780Z,33.75
2023-05-15T12:36:01.799Z,33.45
2023-05-15T12:38:48.340Z,32.33
2023-05-15T12:41:34.308Z,29.70
2023-05-15T12:44:20.469Z,26.58
2023-05-15T12:47:06.401Z,23.23
2023-05-15T12:49:57.326Z,25.08
2023-05-15T12:52:53.970Z,19.95
2023-05-15T12:55:40.421Z,20.33
2023-05-15T12:58:26.312Z,16.67
2023-05-15T13:01:13.105Z,17.25
2023-05-15T13:03:59.498Z,16.98
2023-05-15T13:06:47.898Z,18.15
2023-05-15T13:09:36.861Z,17.88
2023-05-15T13:12:23.816Z,17.70
2023-05-15T13:15:23.193Z,15.23
2023-05-15T13:18:11.416Z,13.52
2023-05-15T13:20:57.457Z,14.77
2023-05-15T13:23:44.554Z,15.43
2023-05-15T13:26:30.712Z,18.20
2023-05-15T13:29:16.930Z,21.58
2023-05-15T13:32:02.988Z,22.52
2023-05-15T13:34:49.044Z,25.40
2023-05-15T13:37:35.032Z,24.02
2023-05-15T13:40:22.648Z,23.02
2023-05-15T13:43:08.591Z,26.52
2023-05-15T13:45:54.847Z,22.20
2023-05-15T13:48:40.520Z,14.07
2023-05-15T13:51:26.297Z,12.77
2023-05-15T13:54:11.888Z,14.82
2023-05-15T13:56:59.873Z,15.50
2023-05-15T13:59:46.012Z,14.75
2023-05-15T14:02:31.861Z,14.70
2023-05-15T14:05:18.405Z,13.48
2023-05-15T14:08:05.017Z,15.32
2023-05-15T14:10:50.946Z,15.35
2023-05-15T14:13:38.172Z,18.67
2023-05-15T14:16:24.042Z,16.83
2023-05-15T14:19:10.033Z,16.50
2023-05-15T14:21:56.128Z,15.65
2023-05-15T14:24:42.093Z,14.07
2023-05-15T14:27:28.061Z,13.20
2023-05-15T14:30:15.126Z,16.90
2023-05-15T14:33:01.255Z,17.27
2023-05-15T14:35:47.042Z,14.95
2023-05-15T14:38:33.055Z,15.70
2023-05-15T14:41:18.958Z,13.85
2023-05-15T14:44:04.920Z,13.52
2023-05-15T14:47:06.445Z,13.57
2023-05-15T14:49:52.203Z,11.90
2023-05-15T14:52:38.105Z,13.32
2023-05-15T14:55:24.074Z,12.77
2023-05-15T14:58:11.388Z,13.05
2023-05-15T15:00:57.775Z,10.25
2023-05-15T15:03:44.898Z,10.77
2023-05-15T15:06:31.832Z,9.88
2023-05-15T15:09:20.304Z,10.93
2023-05-15T15:12:07.756Z,9.05
2023-05-15T15:14:53.574Z,9.45
2023-05-15T15:17:39.331Z,11.45
2023-05-15T15:20:28.085Z,10.02
2023-05-15T15:23:14.631Z,11.77
2023-05-15T15:26:00.642Z,7.22
2023-05-15T15:28:46.225Z,7.07
2023-05-15T15:31:32.116Z,10.23
2023-05-15T15:34:17.768Z,10.98
2023-05-15T15:37:05.358Z,8.10
2023-05-15T15:39:51.138Z,8.65
2023-05-15T15:42:36.894Z,8.20
2023-05-15T15:45:23.153Z,9.02
2023-05-15T15:48:08.947Z,7.70
2023-05-15T15:50:55.180Z,8.23
2023-05-15T15:53:42.593Z,6.53
2023-05-15T15:56:28.331Z,7.28
2023-05-15T15:59:14.186Z,7.07
2023-05-15T16:01:59.623Z,5.68
2023-05-15T16:04:45.346Z,6.22
2023-05-15T16:07:30.786Z,7.78
2023-05-15T16:10:17.962Z,5.85
2023-05-15T16:13:03.834Z,6.90
2023-05-15T16:15:52.658Z,4.18
2023-05-15T16:18:38.736Z,4.38
2023-05-15T16:21:24.766Z,4.70
2023-05-15T16:24:10.795Z,6.85
2023-05-15T16:26:58.110Z,3.15
2023-05-15T16:29:44.692Z,4.28
2023-05-15T16:32:30.502Z,5.50
2023-05-15T16:35:16.889Z,2.67
2023-05-15T16:38:03.253Z,3.90
2023-05-15T16:40:49.417Z,3.03
2023-05-15T16:43:38.240Z,4.05
2023-05-15T16:46:24.390Z,6.10
2023-05-15T16:49:10.381Z,4.07
2023-05-15T16:51:56.311Z,5.43
2023-05-15T16:54:42.085Z,6.20
2023-05-15T16:57:28.149Z,8.88
2023-05-15T17:00:16.700Z,6.57
2023-05-15T17:03:03.748Z,6.55
2023-05-15T17:05:50.043Z,7.88
2023-05-15T17:08:36.596Z,7.65
2023-05-15T17:11:23.035Z,10.32
2023-05-15T17:14:18.591Z,8.70
2023-05-15T17:17:08.887Z,7.20
2023-05-15T17:19:55.507Z,5.07
2023-05-15T17:22:41.840Z,8.18
2023-05-15T17:25:28.156Z,7.97
2023-05-15T17:28:14.381Z,7.85
2023-05-15T17:31:00.528Z,8.70
2023-05-15T17:33:47.941Z,6.72
2023-05-15T17:36:33.828Z,11.90
2023-05-15T17:39:19.618Z,14.45
2023-05-15T17:42:05.812Z,8.43
2023-05-15T17:44:51.526Z,6.88
2023-05-15T17:47:37.919Z,6.72
2023-05-15T17:50:24.822Z,9.43
2023-05-15T17:53:11.029Z,7.25
2023-05-15T17:55:56.796Z,8.05
2023-05-15T17:58:42.837Z,6.18
2023-05-15T18:01:29.095Z,5.57
2023-05-15T18:04:15.435Z,5.88
2023-05-15T18:07:02.772Z,4.80
2023-05-15T18:09:50.747Z,4.93
2023-05-15T18:12:37.036Z,9.02
2023-05-15T18:15:23.007Z,4.50
2023-05-15T18:18:09.024Z,4.63
2023-05-15T18:20:54.781Z,4.30
2023-05-15T18:23:41.808Z,5.55
2023-05-15T18:26:29.530Z,6.95
2023-05-15T18:29:15.603Z,6.13
2023-05-15T18:32:01.377Z,8.88
2023-05-15T18:34:47.611Z,7.70
2023-05-15T18:37:33.584Z,8.10
2023-05-15T18:40:23.583Z,11.77
2023-05-15T18:43:09.244Z,9.32
2023-05-15T18:45:55.573Z,10.73
2023-05-15T18:48:41.355Z,10.07
2023-05-15T18:51:27.305Z,6.90
2023-05-15T18:54:13.439Z,8.70
2023-05-15T18:57:00.527Z,9.68
2023-05-15T18:59:48.098Z,10.32
2023-05-15T19:02:33.850Z,5.60
2023-05-15T19:05:20.179Z,12.50
2023-05-15T19:08:07.307Z,9.48
2023-05-15T19:10:53.001Z,9.93
2023-05-15T19:13:40.373Z,5.30
2023-05-15T19:16:28.552Z,10.63
2023-05-15T19:19:15.424Z,9.45
2023-05-15T19:22:07.428Z,5.57
2023-05-15T19:24:56.691Z,10.73
2023-05-15T19:27:42.642Z,9.15
2023-05-15T19:30:30.873Z,7.20
2023-05-15T19:33:16.755Z,6.85
2023-05-15T19:36:02.375Z,7.32
2023-05-15T19:38:50.432Z,7.63
2023-05-15T19:41:36.794Z,4.85
2023-05-15T19:44:23.207Z,4.72
2023-05-15T19:47:10.296Z,5.80
2023-05-15T19:49:55.922Z,5.32
2023-05-15T19:52:43.461Z,9.52
2023-05-15T19:55:31.356Z,9.40
2023-05-15T19:58:20.191Z,7.55
2023-05-15T20:01:10.787Z,7.57
2023-05-15T20:03:58.415Z,2.45
2023-05-15T20:06:44.654Z,7.38
2023-05-15T20:09:30.791Z,3.85
2023-05-15T20:12:21.770Z,1.80
2023-05-15T20:15:12.272Z,0.85
2023-05-15T20:18:04.854Z,3.08
2023-05-15T20:20:57.729Z,6.05
2023-05-15T20:23:45.663Z,4.18
2023-05-15T20:26:36.084Z,2.88
2023-05-15T20:29:23.013Z,2.47
2023-05-15T20:32:13.316Z,2.15
2023-05-15T20:35:02.236Z,0.95
2023-05-15T20:37:51.234Z,4.10
2023-05-15T20:40:37.201Z,3.25
2023-05-15T20:43:23.473Z,4.40
2023-05-15T20:46:09.352Z,4.57
2023-05-15T20:48:59.081Z,4.97
2023-05-15T20:51:46.095Z,5.63
2023-05-15T20:54:33.547Z,3.85
2023-05-15T20:57:19.107Z,4.40
2023-05-15T21:00:06.781Z,3.15
2023-05-15T21:02:52.772Z,4.97
2023-05-15T21:05:38.278Z,5.45
2023-05-15T21:08:24.007Z,6.60
2023-05-15T21:11:11.194Z,3.70
2023-05-15T21:13:57.417Z,2.95
2023-05-15T21:16:43.039Z,4.20
2023-05-15T21:19:28.988Z,6.18
2023-05-15T21:22:14.741Z,4.82
2023-05-15T21:25:00.526Z,6.28
2023-05-15T21:27:47.710Z,8.27
2023-05-15T21:30:33.516Z,3.05
2023-05-15T21:33:19.324Z,4.80
2023-05-15T21:36:05.982Z,5.85
2023-05-15T21:39:03.679Z,5.43
2023-05-15T21:41:53.689Z,3.65
2023-05-15T21:45:07.746Z,6.93
2023-05-15T21:47:53.574Z,9.10
2023-05-15T21:50:39.686Z,9.82
2023-05-15T21:53:27.366Z,10.15
2023-05-15T21:56:13.017Z,6.53
2023-05-15T21:58:58.736Z,9.40
2023-05-15T22:01:46.409Z,12.05
2023-05-15T22:04:32.315Z,7.70
2023-05-15T22:07:18.259Z,10.57
2023-05-15T22:10:05.275Z,11.50
2023-05-15T22:12:51.688Z,7.65
2023-05-15T22:15:37.401Z,9.82
2023-05-15T22:18:24.830Z,12.52
2023-05-15T22:21:10.643Z,8.18
2023-05-15T22:23:56.387Z,8.90
2023-05-15T22:26:42.241Z,10.85
2023-05-15T22:29:27.892Z,8.27
2023-05-15T22:32:13.847Z,6.50
2023-05-15T22:35:01.025Z,13.07
2023-05-15T22:37:46.854Z,13.35
2023-05-15T22:40:34.716Z,13.15
2023-05-15T22:43:21.472Z,8.18
2023-05-15T22:46:07.232Z,8.48
2023-05-15T22:48:53.053Z,8.80
2023-05-15T22:51:41.656Z,11.32
2023-05-15T22:54:27.542Z,10.13
2023-05-15T22:57:13.191Z,11.10
2023-05-15T22:59:59.666Z,15.57
2023-05-15T23:02:48.248Z,9.95
2023-05-15T23:05:34.281Z,8.90
2023-05-15T23:08:21.484Z,9.77
2023-05-15T23:11:07.425Z,13.15
2023-05-15T23:13:53.000Z,13.52
2023-05-15T23:16:38.721Z,13.30
2023-05-15T23:19:24.670Z,15.02
2023-05-15T23:22:12.346Z,14.30
2023-05-15T23:24:59.070Z,9.38
2023-05-15T23:27:45.036Z,12.73
2023-05-15T23:30:30.982Z,11.25
2023-05-15T23:33:17.217Z,11.40
2023-05-15T23:36:02.968Z,12.90
2023-05-15T23:38:48.935Z,13.60
2023-05-15T23:41:36.455Z,9.57
2023-05-15T23:44:22.395Z,11.55
2023-05-15T23:47:08.652Z,11.25
2023-05-15T23:49:54.585Z,7.75
2023-05-15T23:52:40.279Z,9.90
2023-05-15T23:55:25.740Z,13.25
2023-05-15T23:58:13.166Z,7.85
